Terminal Aerodrome Forecast
Issued by NWS Brownsville, TX

Home | Current Version | Previous Version | Text Only | Print | Product List | Glossary On
Versions: 1 2 3 4 5 6 7 8 9 10 11 12 13 14 15 16 17
243
FTUS44 KBRO 232340
TAFMFE
TAF
KMFE 232340Z 2400/2424 14012KT P6SM SKC
     FM240200 15009KT P6SM SKC
     FM240800 14005KT P6SM SCT020
     FM241500 15013KT P6SM SCT035
     FM241900 15015G20KT P6SM SCT035=

USA.gov is the U.S. government's official web portal to all federal, state and local government web resources and services.